Time;durP1;ratioP1;P1;durP2;ratioP2;P2;SDS_P1;SDS_P2;PMS_P1;PMS_P2;Temp;Humidity;BMP_temperature;BMP_pressure;BME280_temperature;BME280_humidity;BME280_pressure;Samples;Min_cycle;Max_cycle;Signal;HPM_P1;HPM_P2
2024/01/10 00:01:46;;;;;;;8.48;5.32;;;;;;;;;;5035147;28;20118;-70
2024/01/10 00:04:13;;;;;;;9.65;5.95;;;;;;;;;;5036815;28;20356;-69
2024/01/10 00:06:39;;;;;;;8.45;5.05;;;;;;;;;;5036324;28;20282;-70
2024/01/10 00:09:05;;;;;;;10.02;6.47;;;;;;;;;;5019208;28;20208;-68
2024/01/10 00:11:31;;;;;;;8.30;5.03;;;;;;;;;;5037402;28;20448;-69
2024/01/10 00:13:59;;;;;;;9.73;5.78;;;;;;;;;;5036248;28;20279;-71
2024/01/10 00:16:26;;;;;;;7.22;5.80;;;;;;;;;;5037294;28;20048;-69
2024/01/10 00:18:58;;;;;;;10.27;5.57;;;;;;;;;;5035315;28;20105;-70
2024/01/10 00:21:24;;;;;;;8.48;6.10;;;;;;;;;;5034019;28;20075;-70
2024/01/10 00:23:50;;;;;;;10.18;6.65;;;;;;;;;;5036090;28;20045;-70
2024/01/10 00:26:16;;;;;;;14.60;6.68;;;;;;;;;;5019198;28;20302;-70
2024/01/10 00:28:45;;;;;;;8.10;6.13;;;;;;;;;;5036378;28;20060;-68
2024/01/10 00:31:12;;;;;;;11.07;6.32;;;;;;;;;;5035816;28;20468;-69
2024/01/10 00:33:38;;;;;;;10.77;6.50;;;;;;;;;;5035027;28;20283;-69
2024/01/10 00:36:04;;;;;;;10.48;6.65;;;;;;;;;;5036156;28;20257;-69
2024/01/10 00:38:30;;;;;;;9.73;6.40;;;;;;;;;;5035115;28;20044;-69
2024/01/10 00:40:56;;;;;;;9.13;7.15;;;;;;;;;;5036373;28;20191;-69
2024/01/10 00:43:22;;;;;;;9.07;6.25;;;;;;;;;;5034148;28;20559;-69
2024/01/10 00:45:48;;;;;;;10.20;6.90;;;;;;;;;;5034890;28;20259;-70
2024/01/10 00:48:14;;;;;;;10.70;7.97;;;;;;;;;;5035414;28;20036;-69
2024/01/10 00:50:41;;;;;;;10.52;7.15;;;;;;;;;;5036621;28;20251;-70
2024/01/10 00:53:07;;;;;;;12.90;7.65;;;;;;;;;;5034961;28;20067;-69
2024/01/10 00:55:33;;;;;;;10.63;7.72;;;;;;;;;;5036834;28;20911;-69
2024/01/10 00:57:59;;;;;;;11.50;8.18;;;;;;;;;;5034071;28;20051;-69
2024/01/10 01:00:26;;;;;;;10.63;6.90;;;;;;;;;;5036875;28;20475;-68
2024/01/10 01:02:52;;;;;;;11.32;7.53;;;;;;;;;;5035843;28;20701;-69
2024/01/10 01:05:18;;;;;;;10.13;7.57;;;;;;;;;;5034920;28;20189;-69
2024/01/10 01:07:44;;;;;;;12.30;8.07;;;;;;;;;;5034442;28;20105;-69
2024/01/10 01:10:10;;;;;;;13.20;7.95;;;;;;;;;;5051934;28;20053;-68
2024/01/10 01:12:37;;;;;;;10.18;7.28;;;;;;;;;;5035535;28;20052;-69
2024/01/10 01:15:03;;;;;;;12.07;7.82;;;;;;;;;;5036125;28;20043;-69
2024/01/10 01:17:29;;;;;;;11.30;8.32;;;;;;;;;;5036901;28;20611;-69
2024/01/10 01:19:55;;;;;;;10.25;6.80;;;;;;;;;;5036890;28;20267;-69
2024/01/10 01:22:22;;;;;;;12.45;7.85;;;;;;;;;;5036480;28;20084;-70
2024/01/10 01:24:48;;;;;;;12.95;8.45;;;;;;;;;;5036136;28;20443;-70
2024/01/10 01:27:14;;;;;;;12.60;8.13;;;;;;;;;;5036319;28;20511;-69
2024/01/10 01:29:40;;;;;;;13.43;8.32;;;;;;;;;;5036155;28;20036;-70
2024/01/10 01:32:06;;;;;;;10.13;7.70;;;;;;;;;;5033360;28;20041;-69
2024/01/10 01:34:32;;;;;;;10.48;7.57;;;;;;;;;;5035830;28;20067;-69
2024/01/10 01:36:59;;;;;;;12.88;8.50;;;;;;;;;;5035977;28;20119;-69
2024/01/10 01:39:25;;;;;;;13.30;9.13;;;;;;;;;;5016251;28;20053;-70
2024/01/10 01:41:51;;;;;;;10.63;8.23;;;;;;;;;;5035470;28;20220;-68
2024/01/10 01:44:17;;;;;;;10.93;7.60;;;;;;;;;;5033330;28;20044;-69
2024/01/10 01:46:43;;;;;;;12.10;7.95;;;;;;;;;;5034451;28;20049;-69
2024/01/10 01:49:11;;;;;;;13.70;8.10;;;;;;;;;;5034264;28;20207;-70
2024/01/10 01:51:37;;;;;;;12.57;8.27;;;;;;;;;;5016835;28;20052;-69
2024/01/10 01:54:08;;;;;;;15.32;8.60;;;;;;;;;;5034739;28;20864;-70
2024/01/10 01:56:34;;;;;;;10.75;7.68;;;;;;;;;;5050670;28;20104;-70
2024/01/10 01:59:00;;;;;;;12.85;8.68;;;;;;;;;;5050850;28;20113;-70
2024/01/10 02:01:26;;;;;;;14.40;9.35;;;;;;;;;;5036330;28;20404;-70
2024/01/10 02:03:53;;;;;;;14.65;8.98;;;;;;;;;;5034262;28;20152;-70
2024/01/10 02:06:19;;;;;;;16.35;8.93;;;;;;;;;;5035398;28;20224;-70
2024/01/10 02:08:46;;;;;;;16.75;9.13;;;;;;;;;;5036495;28;20133;-69
2024/01/10 02:11:12;;;;;;;14.55;10.43;;;;;;;;;;5036844;28;20029;-69
2024/01/10 02:13:38;;;;;;;13.48;8.52;;;;;;;;;;5037664;28;20036;-69
2024/01/10 02:16:05;;;;;;;11.93;8.77;;;;;;;;;;5037780;28;20120;-69
2024/01/10 02:18:31;;;;;;;10.50;8.30;;;;;;;;;;5038146;28;20067;-69
2024/01/10 02:20:57;;;;;;;13.93;9.65;;;;;;;;;;5036107;28;20115;-69
2024/01/10 02:23:24;;;;;;;13.27;9.70;;;;;;;;;;5036787;28;20238;-69
2024/01/10 02:25:50;;;;;;;13.27;8.43;;;;;;;;;;5039531;28;20055;-69
2024/01/10 02:28:16;;;;;;;14.75;9.48;;;;;;;;;;5037157;28;20178;-69
2024/01/10 02:30:42;;;;;;;14.93;10.30;;;;;;;;;;5039033;28;20114;-69
2024/01/10 02:33:08;;;;;;;17.15;10.55;;;;;;;;;;5038191;28;20053;-69
2024/01/10 02:35:34;;;;;;;15.50;9.93;;;;;;;;;;5038750;28;20048;-69
2024/01/10 02:38:01;;;;;;;16.75;9.68;;;;;;;;;;5038482;28;20045;-69
2024/01/10 02:40:27;;;;;;;16.00;9.80;;;;;;;;;;5053169;28;20071;-69
2024/01/10 02:42:53;;;;;;;13.50;9.48;;;;;;;;;;5039812;28;20299;-69
2024/01/10 02:45:19;;;;;;;12.52;8.85;;;;;;;;;;5037749;28;20234;-70
2024/01/10 02:47:46;;;;;;;15.15;10.20;;;;;;;;;;5038678;28;20572;-70
2024/01/10 02:50:12;;;;;;;16.45;9.93;;;;;;;;;;5038054;28;20050;-70
2024/01/10 02:52:38;;;;;;;15.68;9.88;;;;;;;;;;5037339;28;20056;-69
2024/01/10 02:55:04;;;;;;;15.15;10.30;;;;;;;;;;5037601;28;20420;-68
2024/01/10 02:57:30;;;;;;;13.45;9.30;;;;;;;;;;5052585;28;20707;-69
2024/01/10 02:59:57;;;;;;;19.60;11.68;;;;;;;;;;5038444;28;20045;-69
2024/01/10 03:02:23;;;;;;;15.55;10.90;;;;;;;;;;5036389;28;20228;-69
2024/01/10 03:04:49;;;;;;;16.77;10.50;;;;;;;;;;5038153;28;20044;-70
2024/01/10 03:07:16;;;;;;;16.30;10.40;;;;;;;;;;5038081;28;20671;-70
2024/01/10 03:09:43;;;;;;;14.23;11.43;;;;;;;;;;5038342;28;20052;-70
2024/01/10 03:12:10;;;;;;;17.27;11.63;;;;;;;;;;5037944;28;20047;-70
2024/01/10 03:14:38;;;;;;;13.60;10.20;;;;;;;;;;5038362;28;20048;-69
2024/01/10 03:17:05;;;;;;;14.48;10.02;;;;;;;;;;5036395;28;20064;-70
2024/01/10 03:19:31;;;;;;;14.88;11.20;;;;;;;;;;5037157;28;20250;-70
2024/01/10 03:21:57;;;;;;;17.17;11.48;;;;;;;;;;5037908;28;20417;-70
2024/01/10 03:24:26;;;;;;;17.30;11.38;;;;;;;;;;5037676;28;20199;-70
2024/01/10 03:26:52;;;;;;;17.13;11.05;;;;;;;;;;5037781;28;20101;-69
2024/01/10 03:29:18;;;;;;;17.65;11.73;;;;;;;;;;5036342;28;20060;-70
2024/01/10 03:31:44;;;;;;;16.10;10.57;;;;;;;;;;5053576;28;20040;-69
2024/01/10 03:34:11;;;;;;;18.15;12.35;;;;;;;;;;5036357;28;20378;-69
2024/01/10 03:36:37;;;;;;;15.45;10.82;;;;;;;;;;5036510;28;20036;-69
2024/01/10 03:39:03;;;;;;;14.75;9.88;;;;;;;;;;5036084;28;20049;-69
2024/01/10 03:41:29;;;;;;;15.55;9.85;;;;;;;;;;5037649;28;20523;-70
2024/01/10 03:43:55;;;;;;;16.83;11.30;;;;;;;;;;5038137;28;20032;-70
2024/01/10 03:46:21;;;;;;;14.27;10.43;;;;;;;;;;5037210;28;20424;-70
2024/01/10 03:48:48;;;;;;;13.45;9.60;;;;;;;;;;5034796;28;20042;-69
2024/01/10 03:51:15;;;;;;;14.20;10.15;;;;;;;;;;5019833;28;20129;-69
2024/01/10 03:53:41;;;;;;;17.17;10.15;;;;;;;;;;5035425;28;20040;-68
2024/01/10 03:56:07;;;;;;;14.13;10.68;;;;;;;;;;5036095;28;20363;-69
2024/01/10 03:58:34;;;;;;;14.80;9.77;;;;;;;;;;5037568;28;20782;-69
2024/01/10 04:01:00;;;;;;;18.85;11.73;;;;;;;;;;5038205;28;20098;-69
2024/01/10 04:03:26;;;;;;;16.00;11.20;;;;;;;;;;5037576;28;20052;-69
2024/01/10 04:05:52;;;;;;;14.98;10.63;;;;;;;;;;5036554;28;20901;-69
2024/01/10 04:08:18;;;;;;;13.27;10.02;;;;;;;;;;5035294;28;20269;-69
2024/01/10 04:10:44;;;;;;;12.20;9.65;;;;;;;;;;5034680;28;20089;-69
2024/01/10 04:13:10;;;;;;;13.52;9.98;;;;;;;;;;5037796;28;20279;-69
2024/01/10 04:15:37;;;;;;;12.27;9.15;;;;;;;;;;5035443;28;20745;-70
2024/01/10 04:18:03;;;;;;;16.38;10.00;;;;;;;;;;5052390;28;20210;-69
2024/01/10 04:20:29;;;;;;;13.02;10.00;;;;;;;;;;5018945;28;20283;-70
2024/01/10 04:22:56;;;;;;;12.82;9.93;;;;;;;;;;5036446;28;20076;-70
2024/01/10 04:25:22;;;;;;;15.52;10.75;;;;;;;;;;5037304;28;20532;-70
2024/01/10 04:27:50;;;;;;;19.27;11.20;;;;;;;;;;5036091;28;20143;-70
2024/01/10 04:30:16;;;;;;;16.63;11.88;;;;;;;;;;5018797;28;20044;-70
2024/01/10 04:32:42;;;;;;;15.70;10.13;;;;;;;;;;5019830;28;20480;-69
2024/01/10 04:35:15;;;;;;;14.55;10.07;;;;;;;;;;5036885;28;20285;-70
2024/01/10 04:37:41;;;;;;;13.60;10.45;;;;;;;;;;5035412;28;20044;-69
2024/01/10 04:40:07;;;;;;;11.77;9.60;;;;;;;;;;5036488;28;20589;-70
2024/01/10 04:42:33;;;;;;;14.32;10.43;;;;;;;;;;5036712;28;20159;-70
2024/01/10 04:44:59;;;;;;;13.40;9.70;;;;;;;;;;5036115;28;20131;-69
2024/01/10 04:47:25;;;;;;;15.85;10.77;;;;;;;;;;5035343;28;20040;-70
2024/01/10 04:49:52;;;;;;;12.27;8.68;;;;;;;;;;5032956;28;20502;-70
2024/01/10 04:52:18;;;;;;;12.90;8.90;;;;;;;;;;5033731;28;20052;-68
2024/01/10 04:54:44;;;;;;;14.57;8.90;;;;;;;;;;5035279;28;20369;-70
2024/01/10 04:57:10;;;;;;;12.45;9.45;;;;;;;;;;5035320;28;20258;-69
2024/01/10 04:59:36;;;;;;;12.55;9.05;;;;;;;;;;5037056;28;20407;-69
2024/01/10 05:02:03;;;;;;;16.65;10.20;;;;;;;;;;5034683;28;20516;-70
2024/01/10 05:04:29;;;;;;;12.55;8.73;;;;;;;;;;5035014;28;20241;-69
2024/01/10 05:06:55;;;;;;;17.13;10.20;;;;;;;;;;5034949;28;20276;-70
2024/01/10 05:09:21;;;;;;;14.77;9.00;;;;;;;;;;5018252;28;20248;-70
2024/01/10 05:11:50;;;;;;;16.08;9.98;;;;;;;;;;5036008;28;20048;-70
2024/01/10 05:14:16;;;;;;;17.25;9.93;;;;;;;;;;5037252;28;20071;-68
2024/01/10 05:16:43;;;;;;;15.05;10.07;;;;;;;;;;5036082;28;20184;-69
2024/01/10 05:19:09;;;;;;;14.70;9.93;;;;;;;;;;5036538;28;20075;-70
2024/01/10 05:21:35;;;;;;;15.55;9.98;;;;;;;;;;5017289;28;20342;-69
2024/01/10 05:24:01;;;;;;;18.95;9.60;;;;;;;;;;5050871;28;20199;-71
2024/01/10 05:26:27;;;;;;;16.13;10.70;;;;;;;;;;5036195;28;20041;-71
2024/01/10 05:28:53;;;;;;;12.57;8.82;;;;;;;;;;5035061;28;20044;-70
2024/01/10 05:31:20;;;;;;;14.80;9.43;;;;;;;;;;5036546;28;20132;-72
2024/01/10 05:33:46;;;;;;;14.55;9.48;;;;;;;;;;5019004;28;20091;-70
2024/01/10 05:36:12;;;;;;;14.55;10.20;;;;;;;;;;5030693;28;20122;-70
2024/01/10 05:38:39;;;;;;;13.23;9.05;;;;;;;;;;5031759;28;20067;-70
2024/01/10 05:41:06;;;;;;;16.95;10.35;;;;;;;;;;5032895;28;20213;-69
2024/01/10 05:43:32;;;;;;;17.70;11.68;;;;;;;;;;5036202;28;20915;-71
2024/01/10 05:45:59;;;;;;;15.30;9.93;;;;;;;;;;5037778;28;20493;-69
2024/01/10 05:48:25;;;;;;;16.08;11.75;;;;;;;;;;5037351;28;20199;-70
2024/01/10 05:50:51;;;;;;;15.77;10.13;;;;;;;;;;5037824;28;20520;-70
2024/01/10 05:53:17;;;;;;;14.57;10.25;;;;;;;;;;5036477;28;20053;-71
2024/01/10 05:55:46;;;;;;;14.77;9.70;;;;;;;;;;5036959;28;20044;-71
2024/01/10 05:58:12;;;;;;;15.25;10.27;;;;;;;;;;5035125;28;20240;-70
2024/01/10 06:00:38;;;;;;;17.70;11.13;;;;;;;;;;5036664;28;20053;-71
2024/01/10 06:03:05;;;;;;;17.38;10.07;;;;;;;;;;5036502;28;20040;-70
2024/01/10 06:05:31;;;;;;;17.23;10.13;;;;;;;;;;5036262;28;20135;-69
2024/01/10 06:07:57;;;;;;;17.02;10.30;;;;;;;;;;5034848;28;20445;-70
2024/01/10 06:10:24;;;;;;;15.10;9.35;;;;;;;;;;5020360;28;20041;-69
2024/01/10 06:12:50;;;;;;;14.05;9.50;;;;;;;;;;5030311;28;20277;-70
2024/01/10 06:15:16;;;;;;;16.73;11.27;;;;;;;;;;5036417;28;20091;-70
2024/01/10 06:17:43;;;;;;;15.15;10.45;;;;;;;;;;5036402;28;20093;-70
2024/01/10 06:20:09;;;;;;;14.70;9.95;;;;;;;;;;5036530;28;20136;-70
2024/01/10 06:22:35;;;;;;;13.93;10.30;;;;;;;;;;5034487;28;20049;-69
2024/01/10 06:25:01;;;;;;;14.15;10.30;;;;;;;;;;5034645;28;20129;-69
2024/01/10 06:27:28;;;;;;;13.48;9.15;;;;;;;;;;5034383;28;20260;-69
2024/01/10 06:29:54;;;;;;;13.63;10.55;;;;;;;;;;5035532;28;20047;-70
2024/01/10 06:32:20;;;;;;;18.23;10.80;;;;;;;;;;5037440;28;20044;-70
2024/01/10 06:34:46;;;;;;;16.65;11.02;;;;;;;;;;5037183;28;20117;-70
2024/01/10 06:37:12;;;;;;;19.17;11.43;;;;;;;;;;5036439;28;20587;-70
2024/01/10 06:39:38;;;;;;;14.20;10.52;;;;;;;;;;5036153;28;20131;-71
2024/01/10 06:42:06;;;;;;;14.45;10.45;;;;;;;;;;5050890;28;21979;-70
2024/01/10 06:44:33;;;;;;;18.33;12.00;;;;;;;;;;5036645;28;20095;-70
2024/01/10 06:47:00;;;;;;;16.70;11.32;;;;;;;;;;5035885;28;20072;-70
2024/01/10 06:49:27;;;;;;;13.65;10.50;;;;;;;;;;5039978;28;20216;-70
2024/01/10 06:51:53;;;;;;;17.23;11.18;;;;;;;;;;5035061;28;20598;-70
2024/01/10 06:54:19;;;;;;;17.90;13.07;;;;;;;;;;5036115;28;20047;-70
2024/01/10 06:56:45;;;;;;;15.88;10.60;;;;;;;;;;5018078;28;20183;-71
2024/01/10 06:59:11;;;;;;;16.92;11.63;;;;;;;;;;5035767;28;20040;-70
2024/01/10 07:01:39;;;;;;;14.98;10.68;;;;;;;;;;5036301;28;20306;-70
2024/01/10 07:04:05;;;;;;;15.10;11.02;;;;;;;;;;5036304;28;20455;-70
2024/01/10 07:06:31;;;;;;;16.77;11.82;;;;;;;;;;5034484;28;20164;-70
2024/01/10 07:08:58;;;;;;;17.92;12.02;;;;;;;;;;5033264;28;20083;-70
2024/01/10 07:11:26;;;;;;;17.92;11.05;;;;;;;;;;5032112;28;20045;-70
2024/01/10 07:13:52;;;;;;;17.42;11.32;;;;;;;;;;5036921;28;20076;-71
2024/01/10 07:16:18;;;;;;;20.80;11.77;;;;;;;;;;5036263;28;20235;-70
2024/01/10 07:18:46;;;;;;;17.08;10.63;;;;;;;;;;5034943;28;20382;-71
2024/01/10 07:21:13;;;;;;;17.95;11.77;;;;;;;;;;5032743;28;20045;-69
2024/01/10 07:23:40;;;;;;;16.90;11.98;;;;;;;;;;5033815;28;20102;-69
2024/01/10 07:26:07;;;;;;;17.88;12.05;;;;;;;;;;5037081;28;20033;-70
2024/01/10 07:28:33;;;;;;;16.65;12.18;;;;;;;;;;5034716;28;20376;-71
2024/01/10 07:31:02;;;;;;;18.40;11.80;;;;;;;;;;5033407;28;20573;-69
2024/01/10 07:33:32;;;;;;;17.48;13.07;;;;;;;;;;5013451;28;20040;-70
2024/01/10 07:35:58;;;;;;;17.35;11.23;;;;;;;;;;5037637;28;20048;-70
2024/01/10 07:38:24;;;;;;;19.90;13.55;;;;;;;;;;5037039;28;20161;-70
2024/01/10 07:40:50;;;;;;;20.25;12.00;;;;;;;;;;5035532;28;20292;-70
2024/01/10 07:43:16;;;;;;;16.42;11.95;;;;;;;;;;5031432;28;20498;-70
2024/01/10 07:45:43;;;;;;;18.08;12.32;;;;;;;;;;5035662;28;20056;-69
2024/01/10 07:48:10;;;;;;;17.40;12.27;;;;;;;;;;5033464;28;20575;-70
2024/01/10 07:50:37;;;;;;;14.73;11.60;;;;;;;;;;5035753;28;20033;-70
2024/01/10 07:53:03;;;;;;;16.38;10.88;;;;;;;;;;5050119;28;20049;-70
2024/01/10 07:55:32;;;;;;;17.85;12.45;;;;;;;;;;5031254;28;20208;-71
2024/01/10 07:57:58;;;;;;;20.67;13.05;;;;;;;;;;5033783;28;20298;-70
2024/01/10 08:00:24;;;;;;;15.93;11.02;;;;;;;;;;5017882;28;20585;-69
2024/01/10 08:02:51;;;;;;;18.70;11.55;;;;;;;;;;5035072;28;20551;-70
2024/01/10 08:05:21;;;;;;;15.60;11.10;;;;;;;;;;5033080;28;20140;-70
2024/01/10 08:07:48;;;;;;;17.23;11.07;;;;;;;;;;5033959;28;20527;-70
2024/01/10 08:10:15;;;;;;;16.90;12.32;;;;;;;;;;5035099;28;20133;-70
2024/01/10 08:12:41;;;;;;;15.98;11.57;;;;;;;;;;5034197;28;20041;-70
2024/01/10 08:15:07;;;;;;;15.93;10.68;;;;;;;;;;5034198;28;20047;-71
2024/01/10 08:17:34;;;;;;;16.65;11.30;;;;;;;;;;5033758;28;20511;-70
2024/01/10 08:20:04;;;;;;;15.75;11.32;;;;;;;;;;5034863;28;20314;-70
2024/01/10 08:22:30;;;;;;;17.30;11.07;;;;;;;;;;5032301;28;20052;-71
2024/01/10 08:24:57;;;;;;;17.67;11.50;;;;;;;;;;5037216;28;20681;-70
2024/01/10 08:27:23;;;;;;;17.55;11.57;;;;;;;;;;5033654;28;20064;-70
2024/01/10 08:29:49;;;;;;;21.45;11.93;;;;;;;;;;5034609;28;20545;-71
2024/01/10 08:32:17;;;;;;;19.83;13.65;;;;;;;;;;5029417;28;20074;-71
2024/01/10 08:34:44;;;;;;;17.23;11.50;;;;;;;;;;5001974;28;20045;-71
2024/01/10 08:37:11;;;;;;;17.42;11.45;;;;;;;;;;5033616;28;20145;-71
2024/01/10 08:39:37;;;;;;;14.35;10.73;;;;;;;;;;5033458;28;20908;-71
2024/01/10 08:42:03;;;;;;;19.42;12.02;;;;;;;;;;5015924;28;20056;-71
2024/01/10 08:44:29;;;;;;;15.30;11.35;;;;;;;;;;5050250;28;20534;-71
2024/01/10 08:46:55;;;;;;;16.20;12.25;;;;;;;;;;5033659;28;20037;-70
2024/01/10 08:49:21;;;;;;;19.42;11.40;;;;;;;;;;5032529;28;20092;-70
2024/01/10 08:51:47;;;;;;;17.35;10.43;;;;;;;;;;5034721;28;20055;-70
2024/01/10 08:54:16;;;;;;;16.27;10.70;;;;;;;;;;5050034;28;20328;-70
2024/01/10 08:56:46;;;;;;;15.18;11.00;;;;;;;;;;5049722;28;20107;-71
2024/01/10 08:59:12;;;;;;;14.30;11.55;;;;;;;;;;5031277;28;20240;-71
2024/01/10 09:01:39;;;;;;;14.77;11.32;;;;;;;;;;5037507;28;20292;-71
2024/01/10 09:04:05;;;;;;;15.95;10.27;;;;;;;;;;5034727;28;20040;-71
2024/01/10 09:06:32;;;;;;;15.75;10.80;;;;;;;;;;5035351;28;20044;-71
2024/01/10 09:08:58;;;;;;;16.25;11.10;;;;;;;;;;5032118;28;20072;-70
2024/01/10 09:11:24;;;;;;;18.42;11.18;;;;;;;;;;5035133;28;20087;-70
2024/01/10 09:13:53;;;;;;;16.23;11.32;;;;;;;;;;5036392;28;20283;-70
2024/01/10 09:16:19;;;;;;;19.20;11.75;;;;;;;;;;5035588;28;20284;-70
2024/01/10 09:18:46;;;;;;;19.13;11.52;;;;;;;;;;5032271;28;20076;-70
2024/01/10 09:21:12;;;;;;;16.65;11.25;;;;;;;;;;5034525;28;20558;-71
2024/01/10 09:23:38;;;;;;;15.82;10.65;;;;;;;;;;5048458;28;20711;-71
2024/01/10 09:26:04;;;;;;;14.85;11.13;;;;;;;;;;5034956;28;20100;-70
2024/01/10 09:28:30;;;;;;;15.07;9.57;;;;;;;;;;5034832;28;21215;-70
2024/01/10 09:30:56;;;;;;;13.40;9.80;;;;;;;;;;5034430;28;20431;-70
2024/01/10 09:33:22;;;;;;;13.00;9.23;;;;;;;;;;5034450;28;20212;-70
2024/01/10 09:35:49;;;;;;;14.52;9.68;;;;;;;;;;5033197;28;20237;-70
2024/01/10 09:38:16;;;;;;;16.13;10.65;;;;;;;;;;5035391;28;20044;-69
2024/01/10 09:40:43;;;;;;;16.13;11.13;;;;;;;;;;5032395;28;20053;-70
2024/01/10 09:43:09;;;;;;;15.25;10.77;;;;;;;;;;5035325;28;20041;-70
2024/01/10 09:45:36;;;;;;;16.67;10.88;;;;;;;;;;5032530;28;20050;-69
2024/01/10 09:48:02;;;;;;;16.48;10.75;;;;;;;;;;5017254;28;20305;-68
2024/01/10 09:50:29;;;;;;;16.42;10.45;;;;;;;;;;5034496;28;20212;-69
2024/01/10 09:53:00;;;;;;;14.13;9.50;;;;;;;;;;5032270;28;20087;-69
2024/01/10 09:55:30;;;;;;;14.32;10.07;;;;;;;;;;5035364;28;20403;-69
2024/01/10 09:57:57;;;;;;;12.63;9.20;;;;;;;;;;5034762;28;20045;-69
2024/01/10 10:00:25;;;;;;;14.73;9.38;;;;;;;;;;5017271;28;20048;-69
2024/01/10 10:02:52;;;;;;;16.77;8.65;;;;;;;;;;5034047;28;20240;-68
2024/01/10 10:05:18;;;;;;;15.43;10.60;;;;;;;;;;5034729;28;20527;-68
2024/01/10 10:07:47;;;;;;;18.80;11.10;;;;;;;;;;5033808;28;20543;-68
2024/01/10 10:10:15;;;;;;;12.95;9.13;;;;;;;;;;5035290;28;20546;-70
2024/01/10 10:12:42;;;;;;;17.73;10.77;;;;;;;;;;5034879;28;20048;-68
2024/01/10 10:15:26;;;;;;;14.38;9.90;;;;;;;;;;5031087;28;20052;-68
2024/01/10 10:17:56;;;;;;;14.93;9.93;;;;;;;;;;5033664;28;20579;-69
2024/01/10 10:20:23;;;;;;;15.48;8.27;;;;;;;;;;5033805;28;20432;-68
2024/01/10 10:23:01;;;;;;;17.85;9.50;;;;;;;;;;5033850;28;20498;-69
2024/01/10 10:25:31;;;;;;;14.15;7.93;;;;;;;;;;5035706;28;20082;-68
2024/01/10 10:27:57;;;;;;;16.00;9.52;;;;;;;;;;5034979;28;20524;-68
2024/01/10 10:30:23;;;;;;;16.85;9.93;;;;;;;;;;5036709;28;20067;-69
2024/01/10 10:32:50;;;;;;;13.52;7.90;;;;;;;;;;5038900;28;20294;-69
2024/01/10 10:35:17;;;;;;;15.85;8.63;;;;;;;;;;5021131;28;20150;-68
2024/01/10 10:37:43;;;;;;;14.98;8.70;;;;;;;;;;5036535;28;20044;-68
2024/01/10 10:40:09;;;;;;;18.50;9.23;;;;;;;;;;5037951;28;20044;-67
2024/01/10 10:42:38;;;;;;;14.23;7.90;;;;;;;;;;5036730;28;20634;-67
2024/01/10 10:45:04;;;;;;;14.13;8.05;;;;;;;;;;5038871;28;20092;-68
2024/01/10 10:47:35;;;;;;;13.43;8.85;;;;;;;;;;5038966;28;20049;-68
2024/01/10 10:50:03;;;;;;;12.70;7.07;;;;;;;;;;5037939;28;20472;-68
2024/01/10 10:52:29;;;;;;;12.27;7.03;;;;;;;;;;5036229;28;20660;-68
2024/01/10 10:54:57;;;;;;;10.98;7.38;;;;;;;;;;5036844;28;20273;-69
2024/01/10 10:57:26;;;;;;;13.48;8.05;;;;;;;;;;5036532;28;20539;-67
2024/01/10 10:59:53;;;;;;;10.77;6.47;;;;;;;;;;5037688;28;20045;-69
2024/01/10 11:02:23;;;;;;;11.00;7.07;;;;;;;;;;5039268;28;20523;-69
2024/01/10 11:04:49;;;;;;;11.48;7.10;;;;;;;;;;5038633;28;20568;-68
2024/01/10 11:07:17;;;;;;;14.05;6.97;;;;;;;;;;5038531;28;20509;-69
2024/01/10 11:09:45;;;;;;;13.38;7.20;;;;;;;;;;5037199;28;20068;-70
2024/01/10 11:12:41;;;;;;;10.63;6.95;;;;;;;;;;5039698;28;20044;-69
2024/01/10 11:15:14;;;;;;;13.00;7.13;;;;;;;;;;5017985;28;20052;-69
2024/01/10 11:17:59;;;;;;;11.05;7.13;;;;;;;;;;5036746;28;20047;-68
2024/01/10 11:20:38;;;;;;;13.23;7.03;;;;;;;;;;5037295;28;20735;-70
2024/01/10 11:23:19;;;;;;;10.95;7.13;;;;;;;;;;5037081;28;20048;-69
2024/01/10 11:25:46;;;;;;;12.55;7.13;;;;;;;;;;5038811;28;20524;-69
2024/01/10 11:28:13;;;;;;;11.02;6.75;;;;;;;;;;5035467;28;20516;-70
2024/01/10 11:30:49;;;;;;;9.57;6.40;;;;;;;;;;5038249;28;20434;-69
2024/01/10 11:33:21;;;;;;;10.60;6.38;;;;;;;;;;5038623;28;20279;-70
2024/01/10 11:36:06;;;;;;;8.43;5.65;;;;;;;;;;5035640;28;20032;-69
2024/01/10 11:38:32;;;;;;;10.48;5.88;;;;;;;;;;5035066;28;20224;-68
2024/01/10 11:40:58;;;;;;;8.52;5.78;;;;;;;;;;5017569;28;20587;-69
2024/01/10 11:43:24;;;;;;;8.52;5.63;;;;;;;;;;5034331;28;20048;-69
2024/01/10 11:45:56;;;;;;;8.38;6.05;;;;;;;;;;5033890;28;20079;-69
2024/01/10 11:48:28;;;;;;;8.20;5.40;;;;;;;;;;5034412;28;20036;-68
2024/01/10 11:50:55;;;;;;;7.97;5.18;;;;;;;;;;5034873;28;20122;-69
2024/01/10 11:53:42;;;;;;;10.10;5.28;;;;;;;;;;5033343;28;20072;-70
2024/01/10 11:56:16;;;;;;;7.25;4.68;;;;;;;;;;5035907;28;20178;-70
2024/01/10 11:58:55;;;;;;;6.85;4.57;;;;;;;;;;5034414;28;20041;-70
2024/01/10 12:01:22;;;;;;;6.80;4.68;;;;;;;;;;5033410;28;20052;-70
2024/01/10 12:03:51;;;;;;;6.90;5.25;;;;;;;;;;5034803;28;20051;-70
2024/01/10 12:06:17;;;;;;;9.07;6.70;;;;;;;;;;5032169;28;20794;-70
2024/01/10 12:08:46;;;;;;;5.68;4.47;;;;;;;;;;5031962;28;20652;-71
2024/01/10 12:11:13;;;;;;;7.15;4.50;;;;;;;;;;5035898;28;20121;-69
2024/01/10 12:13:39;;;;;;;6.40;4.57;;;;;;;;;;5034071;28;20647;-69
2024/01/10 12:16:05;;;;;;;6.00;4.30;;;;;;;;;;5034911;28;20156;-69
2024/01/10 12:18:32;;;;;;;6.97;4.95;;;;;;;;;;5035026;28;20526;-71
2024/01/10 12:20:58;;;;;;;6.47;4.60;;;;;;;;;;5034226;28;20183;-71
2024/01/10 12:23:24;;;;;;;7.82;5.53;;;;;;;;;;5031128;28;20041;-71
2024/01/10 12:25:50;;;;;;;7.07;5.30;;;;;;;;;;5035484;28;20272;-70
2024/01/10 12:28:17;;;;;;;5.82;4.35;;;;;;;;;;5034123;28;20539;-70
2024/01/10 12:30:44;;;;;;;5.53;4.55;;;;;;;;;;5035019;28;20167;-69
2024/01/10 12:33:10;;;;;;;7.05;5.15;;;;;;;;;;5035396;28;20598;-70
2024/01/10 12:35:37;;;;;;;7.00;5.00;;;;;;;;;;5035229;28;20047;-70
2024/01/10 12:38:03;;;;;;;6.45;4.82;;;;;;;;;;5032369;28;20067;-70
2024/01/10 12:40:32;;;;;;;6.57;4.65;;;;;;;;;;5035434;28;20254;-69
2024/01/10 12:43:05;;;;;;;6.28;4.65;;;;;;;;;;5035813;28;20053;-69
2024/01/10 12:45:31;;;;;;;6.80;4.53;;;;;;;;;;5032827;28;20169;-71
2024/01/10 12:47:58;;;;;;;6.22;4.80;;;;;;;;;;5017497;28;20287;-70
2024/01/10 12:50:27;;;;;;;6.28;4.40;;;;;;;;;;5033730;28;20139;-70
2024/01/10 12:52:54;;;;;;;6.75;4.75;;;;;;;;;;5033480;28;20044;-70
2024/01/10 12:55:21;;;;;;;6.72;4.70;;;;;;;;;;5035667;28;20534;-70
2024/01/10 12:57:47;;;;;;;5.60;4.72;;;;;;;;;;5032954;28;20036;-70
2024/01/10 13:00:14;;;;;;;5.38;4.65;;;;;;;;;;5034243;28;20029;-69
2024/01/10 13:02:40;;;;;;;5.70;4.32;;;;;;;;;;5034459;28;20543;-70
2024/01/10 13:05:09;;;;;;;5.93;4.32;;;;;;;;;;5034146;28;20374;-69
2024/01/10 13:07:38;;;;;;;6.85;4.35;;;;;;;;;;5033181;28;20071;-69
2024/01/10 13:10:04;;;;;;;5.55;3.80;;;;;;;;;;5033752;28;20132;-70
2024/01/10 13:12:31;;;;;;;6.00;4.63;;;;;;;;;;5035516;28;20048;-69
2024/01/10 13:14:57;;;;;;;6.65;5.03;;;;;;;;;;5033922;28;20036;-70
2024/01/10 13:17:23;;;;;;;4.90;3.80;;;;;;;;;;5017942;28;20592;-69
2024/01/10 13:19:49;;;;;;;6.50;4.20;;;;;;;;;;5034304;28;20048;-70
2024/01/10 13:22:21;;;;;;;5.00;3.88;;;;;;;;;;5035552;28;20458;-70
2024/01/10 13:24:47;;;;;;;5.28;3.38;;;;;;;;;;5050374;28;20036;-69
2024/01/10 13:27:14;;;;;;;6.35;4.55;;;;;;;;;;5034974;28;20092;-70
2024/01/10 13:29:40;;;;;;;4.68;3.65;;;;;;;;;;5034631;28;20206;-70
2024/01/10 13:32:10;;;;;;;5.20;4.22;;;;;;;;;;5035342;28;20196;-70
2024/01/10 13:34:36;;;;;;;6.35;3.83;;;;;;;;;;5034994;28;20040;-70
2024/01/10 13:37:02;;;;;;;5.63;4.15;;;;;;;;;;5017465;28;20466;-70
2024/01/10 13:39:30;;;;;;;5.25;3.63;;;;;;;;;;5034236;28;20286;-70
2024/01/10 13:41:56;;;;;;;5.55;3.80;;;;;;;;;;5033748;28;20076;-70
2024/01/10 13:44:22;;;;;;;5.20;3.45;;;;;;;;;;5033892;28;20628;-70
2024/01/10 13:46:50;;;;;;;5.97;4.20;;;;;;;;;;5033865;28;20186;-70
2024/01/10 13:49:16;;;;;;;5.78;3.78;;;;;;;;;;5033917;28;20052;-70
2024/01/10 13:51:44;;;;;;;4.95;3.65;;;;;;;;;;5016696;28;20280;-70
2024/01/10 13:54:10;;;;;;;5.30;4.32;;;;;;;;;;5034323;28;20075;-70
2024/01/10 13:56:39;;;;;;;4.95;3.90;;;;;;;;;;5032801;28;20097;-70
2024/01/10 13:59:05;;;;;;;5.35;3.72;;;;;;;;;;5034635;28;20208;-70
2024/01/10 14:01:32;;;;;;;6.40;4.75;;;;;;;;;;5036937;28;20036;-70
2024/01/10 14:03:58;;;;;;;5.80;4.05;;;;;;;;;;5037256;28;20040;-70
2024/01/10 14:06:24;;;;;;;5.28;4.32;;;;;;;;;;5038984;28;20829;-69
2024/01/10 14:08:51;;;;;;;6.25;4.68;;;;;;;;;;5036850;28;20447;-69
2024/01/10 14:11:17;;;;;;;8.23;4.47;;;;;;;;;;5039746;28;20329;-70
2024/01/10 14:13:43;;;;;;;5.38;4.05;;;;;;;;;;5038431;28;20659;-69
2024/01/10 14:16:10;;;;;;;4.80;3.50;;;;;;;;;;5039115;28;20382;-69
2024/01/10 14:18:37;;;;;;;8.18;4.60;;;;;;;;;;5037292;28;20083;-70
2024/01/10 14:21:05;;;;;;;5.63;4.35;;;;;;;;;;5037626;28;20309;-69
2024/01/10 14:23:31;;;;;;;5.13;4.03;;;;;;;;;;5037454;28;20454;-69
2024/01/10 14:25:57;;;;;;;6.03;4.30;;;;;;;;;;5039048;28;20221;-69
2024/01/10 14:28:23;;;;;;;6.60;4.22;;;;;;;;;;5036141;28;20059;-69